2WN6 weather

Cunningham Airport
Granton, Wisconsin, United States

Public forecast

Using degrees Fahrenheit for public forecast. Weather courtesy of forecast.io.

Closest aviation weather report (METAR) to Cunningham Airport

Closest report is Marshfield Municipal Airport, 11.8 nm (21.8 km) ENE. Retrieved 2019/10/23 10:54 UTC (28 minutes ago):

KMFI 231054Z AUTO 28011KT 10SM OVC027 04/M01 A2970 RMK AO2 SLP068 T00441006

Closest aviation forecast (TAF) to Cunningham Airport

Closest forecast is Central Wisconsin Airport, 35.4 nm (65.6 km) ENE. Retrieved 2019/10/23 06:22 UTC (5 hours ago):

TAF KCWA 230520Z 2306/2406 27014G22KT P6SM BKN015 OVC025 FM231600 27010G17KT P6SM BKN025 FM232100 29007KT P6SM BKN025 BKN120 AMD LTD TO CLD VIS AND WIND TIL 231100